sensor_id;sensor_type;location;lat;lon;timestamp;pressure;altitude;pressure_sealevel;temperature;humidity
9717;BME280;4897;43.570;27.832;2023-03-11T00:02:15;97317.91;;;13.32;100.00
9717;BME280;4897;43.570;27.832;2023-03-11T00:04:41;97334.47;;;13.35;100.00
9717;BME280;4897;43.570;27.832;2023-03-11T00:07:09;97311.72;;;13.31;100.00
9717;BME280;4897;43.570;27.832;2023-03-11T00:09:37;97323.72;;;13.35;100.00
9717;BME280;4897;43.570;27.832;2023-03-11T00:12:05;97326.03;;;13.38;100.00
9717;BME280;4897;43.570;27.832;2023-03-11T00:14:33;97321.69;;;13.37;100.00
9717;BME280;4897;43.570;27.832;2023-03-11T00:17:00;97303.03;;;13.29;100.00
9717;BME280;4897;43.570;27.832;2023-03-11T00:19:27;97308.91;;;13.39;100.00
9717;BME280;4897;43.570;27.832;2023-03-11T00:21:53;97300.66;;;13.41;100.00
9717;BME280;4897;43.570;27.832;2023-03-11T00:24:21;97313.63;;;13.37;100.00
9717;BME280;4897;43.570;27.832;2023-03-11T00:26:47;97314.25;;;13.39;100.00
9717;BME280;4897;43.570;27.832;2023-03-11T00:29:14;97313.00;;;13.35;100.00
9717;BME280;4897;43.570;27.832;2023-03-11T00:31:43;97068.63;;;11.82;100.00
9717;BME280;4897;43.570;27.832;2023-03-11T00:34:09;97276.53;;;13.20;100.00
9717;BME280;4897;43.570;27.832;2023-03-11T00:36:36;97298.75;;;13.35;100.00
9717;BME280;4897;43.570;27.832;2023-03-11T00:39:04;97299.13;;;13.32;100.00
9717;BME280;4897;43.570;27.832;2023-03-11T00:41:32;97295.94;;;13.22;100.00
9717;BME280;4897;43.570;27.832;2023-03-11T00:43:59;97268.13;;;13.08;100.00
9717;BME280;4897;43.570;27.832;2023-03-11T00:46:26;97285.56;;;13.19;100.00
9717;BME280;4897;43.570;27.832;2023-03-11T00:48:55;97288.47;;;13.17;100.00
9717;BME280;4897;43.570;27.832;2023-03-11T00:51:22;97278.09;;;13.14;100.00
9717;BME280;4897;43.570;27.832;2023-03-11T00:53:49;97289.59;;;13.08;100.00
9717;BME280;4897;43.570;27.832;2023-03-11T00:56:16;97283.09;;;13.17;100.00
9717;BME280;4897;43.570;27.832;2023-03-11T00:58:43;97290.88;;;13.12;100.00
9717;BME280;4897;43.570;27.832;2023-03-11T01:01:14;97292.81;;;13.18;100.00
9717;BME280;4897;43.570;27.832;2023-03-11T01:03:42;97290.94;;;13.19;100.00
9717;BME280;4897;43.570;27.832;2023-03-11T01:06:11;97263.91;;;12.99;100.00
9717;BME280;4897;43.570;27.832;2023-03-11T01:08:38;97272.22;;;13.04;100.00
9717;BME280;4897;43.570;27.832;2023-03-11T01:11:06;97268.81;;;12.96;100.00
9717;BME280;4897;43.570;27.832;2023-03-11T01:13:33;97272.22;;;13.04;100.00
9717;BME280;4897;43.570;27.832;2023-03-11T01:16:00;97249.66;;;12.99;100.00
9717;BME280;4897;43.570;27.832;2023-03-11T01:18:27;97266.72;;;13.12;100.00
9717;BME280;4897;43.570;27.832;2023-03-11T01:20:54;97251.22;;;13.08;100.00
9717;BME280;4897;43.570;27.832;2023-03-11T01:23:22;97260.41;;;13.20;100.00
9717;BME280;4897;43.570;27.832;2023-03-11T01:25:49;97253.84;;;13.22;100.00
9717;BME280;4897;43.570;27.832;2023-03-11T01:28:16;97248.00;;;13.19;100.00
9717;BME280;4897;43.570;27.832;2023-03-11T01:30:43;97239.19;;;13.25;100.00
9717;BME280;4897;43.570;27.832;2023-03-11T01:33:14;97205.22;;;13.11;100.00
9717;BME280;4897;43.570;27.832;2023-03-11T01:35:42;97228.06;;;13.28;100.00
9717;BME280;4897;43.570;27.832;2023-03-11T01:38:09;97235.56;;;13.32;100.00
9717;BME280;4897;43.570;27.832;2023-03-11T01:40:38;97224.56;;;13.27;100.00
9717;BME280;4897;43.570;27.832;2023-03-11T01:43:37;97225.81;;;13.31;100.00
9717;BME280;4897;43.570;27.832;2023-03-11T01:46:10;97194.75;;;13.16;100.00
9717;BME280;4897;43.570;27.832;2023-03-11T01:48:38;97193.31;;;13.20;100.00
9717;BME280;4897;43.570;27.832;2023-03-11T01:51:07;97199.53;;;13.20;100.00
9717;BME280;4897;43.570;27.832;2023-03-11T01:53:34;97184.06;;;13.22;100.00
9717;BME280;4897;43.570;27.832;2023-03-11T01:56:04;97176.13;;;13.14;100.00
9717;BME280;4897;43.570;27.832;2023-03-11T01:58:36;97203.84;;;13.21;100.00
9717;BME280;4897;43.570;27.832;2023-03-11T02:01:05;97175.91;;;13.09;100.00
9717;BME280;4897;43.570;27.832;2023-03-11T02:03:35;97203.84;;;13.21;100.00
9717;BME280;4897;43.570;27.832;2023-03-11T02:06:06;97208.38;;;13.21;100.00
9717;BME280;4897;43.570;27.832;2023-03-11T02:08:34;97177.38;;;13.12;100.00
9717;BME280;4897;43.570;27.832;2023-03-11T02:11:05;97184.81;;;13.16;100.00
9717;BME280;4897;43.570;27.832;2023-03-11T02:13:33;97185.22;;;13.13;100.00
9717;BME280;4897;43.570;27.832;2023-03-11T02:16:01;97187.75;;;13.21;100.00
9717;BME280;4897;43.570;27.832;2023-03-11T02:18:28;97181.91;;;13.11;100.00
9717;BME280;4897;43.570;27.832;2023-03-11T02:21:03;97158.34;;;13.07;100.00
9717;BME280;4897;43.570;27.832;2023-03-11T02:23:38;97192.75;;;13.24;100.00
9717;BME280;4897;43.570;27.832;2023-03-11T02:26:15;97189.91;;;13.32;100.00
9717;BME280;4897;43.570;27.832;2023-03-11T02:28:47;97183.34;;;13.35;100.00
9717;BME280;4897;43.570;27.832;2023-03-11T02:31:14;97192.03;;;13.37;100.00
9717;BME280;4897;43.570;27.832;2023-03-11T02:33:43;97195.25;;;13.53;100.00
9717;BME280;4897;43.570;27.832;2023-03-11T02:36:29;97200.66;;;13.60;100.00
9717;BME280;4897;43.570;27.832;2023-03-11T02:38:56;97181.41;;;13.56;100.00
9717;BME280;4897;43.570;27.832;2023-03-11T02:41:23;97192.63;;;13.67;100.00
9717;BME280;4897;43.570;27.832;2023-03-11T02:43:52;97185.34;;;13.60;100.00
9717;BME280;4897;43.570;27.832;2023-03-11T02:46:20;97187.03;;;13.61;100.00
9717;BME280;4897;43.570;27.832;2023-03-11T02:48:47;97185.56;;;13.59;100.00
9717;BME280;4897;43.570;27.832;2023-03-11T02:51:14;97186.72;;;13.50;100.00
9717;BME280;4897;43.570;27.832;2023-03-11T02:53:46;97178.72;;;13.56;100.00
9717;BME280;4897;43.570;27.832;2023-03-11T02:56:13;97184.19;;;13.70;100.00
9717;BME280;4897;43.570;27.832;2023-03-11T02:58:40;97178.34;;;13.59;100.00
9717;BME280;4897;43.570;27.832;2023-03-11T03:01:08;97171.97;;;13.67;100.00
9717;BME280;4897;43.570;27.832;2023-03-11T03:03:35;97173.47;;;13.76;100.00
9717;BME280;4897;43.570;27.832;2023-03-11T03:06:03;97142.59;;;13.59;100.00
9717;BME280;4897;43.570;27.832;2023-03-11T03:08:30;97168.31;;;13.75;100.00
9717;BME280;4897;43.570;27.832;2023-03-11T03:10:57;97158.97;;;13.71;100.00
9717;BME280;4897;43.570;27.832;2023-03-11T03:13:24;97151.06;;;13.62;100.00
9717;BME280;4897;43.570;27.832;2023-03-11T03:15:51;97164.63;;;13.82;100.00
9717;BME280;4897;43.570;27.832;2023-03-11T03:18:19;97158.03;;;13.85;100.00
9717;BME280;4897;43.570;27.832;2023-03-11T03:20:46;97158.38;;;13.75;100.00
9717;BME280;4897;43.570;27.832;2023-03-11T03:23:13;97140.03;;;13.44;100.00
9717;BME280;4897;43.570;27.832;2023-03-11T03:25:41;97140.41;;;13.41;100.00
9717;BME280;4897;43.570;27.832;2023-03-11T03:28:08;97146.03;;;13.46;100.00
9717;BME280;4897;43.570;27.832;2023-03-11T03:30:36;97147.09;;;13.52;100.00
9717;BME280;4897;43.570;27.832;2023-03-11T03:33:03;97143.59;;;13.51;100.00
9717;BME280;4897;43.570;27.832;2023-03-11T03:35:33;97117.91;;;13.42;100.00
9717;BME280;4897;43.570;27.832;2023-03-11T03:38:00;97073.69;;;13.04;100.00
9717;BME280;4897;43.570;27.832;2023-03-11T03:40:27;97139.25;;;13.50;100.00
9717;BME280;4897;43.570;27.832;2023-03-11T03:42:55;97132.22;;;13.49;100.00
9717;BME280;4897;43.570;27.832;2023-03-11T03:45:21;97122.75;;;13.53;100.00
9717;BME280;4897;43.570;27.832;2023-03-11T03:47:48;97129.38;;;13.57;100.00
9717;BME280;4897;43.570;27.832;2023-03-11T03:50:15;97124.59;;;13.53;100.00
9717;BME280;4897;43.570;27.832;2023-03-11T03:52:43;97119.03;;;13.54;100.00
9717;BME280;4897;43.570;27.832;2023-03-11T03:55:10;97115.72;;;13.52;100.00
9717;BME280;4897;43.570;27.832;2023-03-11T03:57:37;97120.53;;;13.63;100.00
9717;BME280;4897;43.570;27.832;2023-03-11T04:00:05;97112.44;;;13.57;100.00
9717;BME280;4897;43.570;27.832;2023-03-11T04:02:34;97111.44;;;13.64;100.00
9717;BME280;4897;43.570;27.832;2023-03-11T04:05:01;97105.44;;;13.62;100.00
9717;BME280;4897;43.570;27.832;2023-03-11T04:07:28;97092.63;;;13.64;100.00
9717;BME280;4897;43.570;27.832;2023-03-11T04:09:56;97099.03;;;13.63;100.00
9717;BME280;4897;43.570;27.832;2023-03-11T04:12:23;97045.63;;;13.34;100.00
9717;BME280;4897;43.570;27.832;2023-03-11T04:14:50;97086.41;;;13.57;100.00
9717;BME280;4897;43.570;27.832;2023-03-11T04:17:18;97079.78;;;13.53;100.00
9717;BME280;4897;43.570;27.832;2023-03-11T04:19:45;97089.28;;;13.56;100.00
9717;BME280;4897;43.570;27.832;2023-03-11T04:22:12;97081.03;;;13.57;100.00
9717;BME280;4897;43.570;27.832;2023-03-11T04:24:39;97067.78;;;13.49;100.00
9717;BME280;4897;43.570;27.832;2023-03-11T04:27:07;97052.44;;;13.37;100.00
9717;BME280;4897;43.570;27.832;2023-03-11T04:29:34;97075.09;;;13.62;100.00
9717;BME280;4897;43.570;27.832;2023-03-11T04:32:01;97066.41;;;13.60;100.00
9717;BME280;4897;43.570;27.832;2023-03-11T04:34:28;97056.00;;;13.50;100.00
9717;BME280;4897;43.570;27.832;2023-03-11T04:36:55;97066.81;;;13.63;100.00
9717;BME280;4897;43.570;27.832;2023-03-11T04:39:21;97064.13;;;13.63;100.00
9717;BME280;4897;43.570;27.832;2023-03-11T04:41:48;97066.19;;;13.61;100.00
9717;BME280;4897;43.570;27.832;2023-03-11T04:44:16;97072.75;;;13.52;100.00
9717;BME280;4897;43.570;27.832;2023-03-11T04:46:43;97069.09;;;13.67;100.00
9717;BME280;4897;43.570;27.832;2023-03-11T04:49:10;97052.16;;;13.66;100.00
9717;BME280;4897;43.570;27.832;2023-03-11T04:51:37;97049.28;;;13.68;100.00
9717;BME280;4897;43.570;27.832;2023-03-11T04:54:04;97046.78;;;13.59;100.00
9717;BME280;4897;43.570;27.832;2023-03-11T04:56:31;97071.78;;;13.67;100.00
9717;BME280;4897;43.570;27.832;2023-03-11T04:58:58;97073.03;;;13.71;100.00
9717;BME280;4897;43.570;27.832;2023-03-11T05:01:26;97068.28;;;13.73;100.00
9717;BME280;4897;43.570;27.832;2023-03-11T05:03:53;97067.50;;;13.79;100.00
9717;BME280;4897;43.570;27.832;2023-03-11T05:06:20;97060.69;;;13.83;100.00
9717;BME280;4897;43.570;27.832;2023-03-11T05:08:46;97050.59;;;13.85;100.00
9717;BME280;4897;43.570;27.832;2023-03-11T05:11:13;97050.16;;;13.88;100.00
9717;BME280;4897;43.570;27.832;2023-03-11T05:13:40;97048.94;;;13.90;100.00
9717;BME280;4897;43.570;27.832;2023-03-11T05:16:07;97038.19;;;13.90;100.00
9717;BME280;4897;43.570;27.832;2023-03-11T05:18:35;96988.94;;;13.63;100.00
9717;BME280;4897;43.570;27.832;2023-03-11T05:21:02;97029.13;;;13.91;100.00
9717;BME280;4897;43.570;27.832;2023-03-11T05:23:29;97037.41;;;14.03;100.00
9717;BME280;4897;43.570;27.832;2023-03-11T05:25:56;97012.13;;;13.84;100.00
9717;BME280;4897;43.570;27.832;2023-03-11T05:28:23;97028.31;;;13.97;100.00
9717;BME280;4897;43.570;27.832;2023-03-11T05:30:50;97028.31;;;14.04;100.00
9717;BME280;4897;43.570;27.832;2023-03-11T05:33:16;97030.81;;;14.05;100.00
9717;BME280;4897;43.570;27.832;2023-03-11T05:35:45;97021.28;;;14.09;100.00
9717;BME280;4897;43.570;27.832;2023-03-11T05:38:11;97007.84;;;14.03;100.00
9717;BME280;4897;43.570;27.832;2023-03-11T05:40:38;96989.84;;;13.97;100.00
9717;BME280;4897;43.570;27.832;2023-03-11T05:43:05;97006.00;;;14.23;100.00
9717;BME280;4897;43.570;27.832;2023-03-11T05:45:32;97006.00;;;14.23;100.00
9717;BME280;4897;43.570;27.832;2023-03-11T05:47:59;97012.69;;;14.40;100.00
9717;BME280;4897;43.570;27.832;2023-03-11T05:50:26;97005.84;;;14.44;100.00
9717;BME280;4897;43.570;27.832;2023-03-11T05:52:54;97013.09;;;14.63;100.00
9717;BME280;4897;43.570;27.832;2023-03-11T05:55:21;96992.59;;;14.75;100.00
9717;BME280;4897;43.570;27.832;2023-03-11T05:57:50;96973.59;;;14.70;100.00
9717;BME280;4897;43.570;27.832;2023-03-11T06:00:17;97007.03;;;15.00;100.00
9717;BME280;4897;43.570;27.832;2023-03-11T06:02:45;96997.72;;;15.09;100.00
9717;BME280;4897;43.570;27.832;2023-03-11T06:05:11;96993.78;;;15.18;100.00
9717;BME280;4897;43.570;27.832;2023-03-11T06:07:38;97002.84;;;15.31;100.00
9717;BME280;4897;43.570;27.832;2023-03-11T06:10:08;96992.84;;;15.38;100.00
9717;BME280;4897;43.570;27.832;2023-03-11T06:12:35;96994.72;;;15.44;100.00
9717;BME280;4897;43.570;27.832;2023-03-11T06:15:04;96987.06;;;15.54;100.00
9717;BME280;4897;43.570;27.832;2023-03-11T06:17:31;97002.53;;;15.65;100.00
9717;BME280;4897;43.570;27.832;2023-03-11T06:19:57;96997.53;;;15.75;100.00
9717;BME280;4897;43.570;27.832;2023-03-11T06:22:24;97006.13;;;15.90;100.00
9717;BME280;4897;43.570;27.832;2023-03-11T06:24:51;97002.06;;;15.81;100.00
9717;BME280;4897;43.570;27.832;2023-03-11T06:27:19;97004.94;;;15.79;100.00
9717;BME280;4897;43.570;27.832;2023-03-11T06:29:51;96993.78;;;15.76;100.00
9717;BME280;4897;43.570;27.832;2023-03-11T06:32:17;97001.19;;;15.87;100.00
9717;BME280;4897;43.570;27.832;2023-03-11T06:34:49;97003.97;;;16.05;100.00
9717;BME280;4897;43.570;27.832;2023-03-11T06:37:16;96997.41;;;15.94;100.00
9717;BME280;4897;43.570;27.832;2023-03-11T06:39:43;96987.06;;;15.91;100.00
9717;BME280;4897;43.570;27.832;2023-03-11T06:42:10;96989.06;;;16.02;100.00
9717;BME280;4897;43.570;27.832;2023-03-11T06:44:38;96912.63;;;15.59;100.00
9717;BME280;4897;43.570;27.832;2023-03-11T06:47:05;96978.31;;;15.96;100.00
9717;BME280;4897;43.570;27.832;2023-03-11T06:49:33;96970.72;;;16.18;100.00
9717;BME280;4897;43.570;27.832;2023-03-11T06:52:01;96911.38;;;15.62;100.00
9717;BME280;4897;43.570;27.832;2023-03-11T06:54:28;96973.03;;;15.83;100.00
9717;BME280;4897;43.570;27.832;2023-03-11T06:56:55;96987.38;;;16.08;100.00
9717;BME280;4897;43.570;27.832;2023-03-11T06:59:21;96964.16;;;16.07;100.00
9717;BME280;4897;43.570;27.832;2023-03-11T07:01:52;96975.84;;;15.94;100.00
9717;BME280;4897;43.570;27.832;2023-03-11T07:04:19;96953.97;;;15.78;100.00
9717;BME280;4897;43.570;27.832;2023-03-11T07:06:46;96963.88;;;15.84;100.00
9717;BME280;4897;43.570;27.832;2023-03-11T07:09:13;96975.81;;;15.63;100.00
9717;BME280;4897;43.570;27.832;2023-03-11T07:11:40;96954.59;;;15.73;100.00
9717;BME280;4897;43.570;27.832;2023-03-11T07:14:07;96955.84;;;15.71;100.00
9717;BME280;4897;43.570;27.832;2023-03-11T07:16:34;96936.06;;;15.52;100.00
9717;BME280;4897;43.570;27.832;2023-03-11T07:19:02;96945.00;;;15.84;100.00
9717;BME280;4897;43.570;27.832;2023-03-11T07:21:30;96964.69;;;15.91;100.00
9717;BME280;4897;43.570;27.832;2023-03-11T07:23:59;96960.06;;;15.98;100.00
9717;BME280;4897;43.570;27.832;2023-03-11T07:26:27;96946.81;;;16.21;100.00
9717;BME280;4897;43.570;27.832;2023-03-11T07:28:55;96952.44;;;16.44;100.00
9717;BME280;4897;43.570;27.832;2023-03-11T07:31:24;96938.22;;;16.37;100.00
9717;BME280;4897;43.570;27.832;2023-03-11T07:33:52;96928.38;;;16.49;100.00
9717;BME280;4897;43.570;27.832;2023-03-11T07:36:21;96931.81;;;16.81;100.00
9717;BME280;4897;43.570;27.832;2023-03-11T07:38:54;96936.03;;;16.95;100.00
9717;BME280;4897;43.570;27.832;2023-03-11T07:41:23;96917.34;;;16.94;100.00
9717;BME280;4897;43.570;27.832;2023-03-11T07:43:53;96929.78;;;17.13;100.00
9717;BME280;4897;43.570;27.832;2023-03-11T07:46:21;96921.22;;;17.34;100.00
9717;BME280;4897;43.570;27.832;2023-03-11T07:48:50;96925.63;;;17.46;100.00
9717;BME280;4897;43.570;27.832;2023-03-11T07:51:20;96923.50;;;17.19;100.00
9717;BME280;4897;43.570;27.832;2023-03-11T07:53:48;96915.16;;;17.02;100.00
9717;BME280;4897;43.570;27.832;2023-03-11T07:56:15;96912.09;;;16.99;100.00
9717;BME280;4897;43.570;27.832;2023-03-11T07:58:42;96902.94;;;16.82;100.00
9717;BME280;4897;43.570;27.832;2023-03-11T08:01:14;96890.28;;;16.82;100.00
9717;BME280;4897;43.570;27.832;2023-03-11T08:03:43;96894.75;;;16.70;100.00
9717;BME280;4897;43.570;27.832;2023-03-11T08:06:11;96906.16;;;16.90;100.00
9717;BME280;4897;43.570;27.832;2023-03-11T08:08:40;96873.56;;;16.92;100.00
9717;BME280;4897;43.570;27.832;2023-03-11T08:11:07;96903.69;;;16.89;100.00
9717;BME280;4897;43.570;27.832;2023-03-11T08:13:34;96901.00;;;17.07;100.00
9717;BME280;4897;43.570;27.832;2023-03-11T08:16:02;96894.25;;;17.16;100.00
9717;BME280;4897;43.570;27.832;2023-03-11T08:18:29;96880.78;;;17.27;100.00
9717;BME280;4897;43.570;27.832;2023-03-11T08:20:57;96896.41;;;17.73;100.00
9717;BME280;4897;43.570;27.832;2023-03-11T08:23:24;96897.25;;;18.26;100.00
9717;BME280;4897;43.570;27.832;2023-03-11T08:25:52;96883.19;;;18.48;100.00
9717;BME280;4897;43.570;27.832;2023-03-11T08:28:19;96896.44;;;18.26;100.00
9717;BME280;4897;43.570;27.832;2023-03-11T08:30:46;96887.97;;;18.22;100.00
9717;BME280;4897;43.570;27.832;2023-03-11T08:33:13;96878.91;;;18.28;100.00
9717;BME280;4897;43.570;27.832;2023-03-11T08:35:40;96873.59;;;18.22;100.00
9717;BME280;4897;43.570;27.832;2023-03-11T08:38:07;96863.88;;;18.32;100.00
9717;BME280;4897;43.570;27.832;2023-03-11T08:40:33;96892.28;;;18.65;100.00
9717;BME280;4897;43.570;27.832;2023-03-11T08:43:02;96868.47;;;19.41;100.00
9717;BME280;4897;43.570;27.832;2023-03-11T08:45:28;96925.03;;;19.77;100.00
9717;BME280;4897;43.570;27.832;2023-03-11T08:47:55;96854.03;;;20.42;100.00
9717;BME280;4897;43.570;27.832;2023-03-11T08:50:22;96883.06;;;19.97;100.00
9717;BME280;4897;43.570;27.832;2023-03-11T08:52:49;96870.13;;;20.32;100.00
9717;BME280;4897;43.570;27.832;2023-03-11T08:55:17;96875.56;;;19.31;100.00
9717;BME280;4897;43.570;27.832;2023-03-11T08:57:49;96958.53;;;18.21;100.00
9717;BME280;4897;43.570;27.832;2023-03-11T09:00:18;96926.22;;;17.19;100.00
9717;BME280;4897;43.570;27.832;2023-03-11T09:02:46;96855.34;;;15.77;100.00
9717;BME280;4897;43.570;27.832;2023-03-11T09:05:13;96887.50;;;15.65;100.00
9717;BME280;4897;43.570;27.832;2023-03-11T09:07:40;96822.00;;;14.45;100.00
9717;BME280;4897;43.570;27.832;2023-03-11T09:10:08;96909.66;;;14.66;100.00
9717;BME280;4897;43.570;27.832;2023-03-11T09:12:36;96884.84;;;14.44;100.00
9717;BME280;4897;43.570;27.832;2023-03-11T09:15:03;96847.84;;;14.26;100.00
9717;BME280;4897;43.570;27.832;2023-03-11T09:17:32;96895.59;;;14.51;100.00
9717;BME280;4897;43.570;27.832;2023-03-11T09:19:59;96918.38;;;14.28;100.00
9717;BME280;4897;43.570;27.832;2023-03-11T09:22:26;96926.22;;;14.23;100.00
9717;BME280;4897;43.570;27.832;2023-03-11T09:24:54;96931.63;;;14.30;100.00
9717;BME280;4897;43.570;27.832;2023-03-11T09:27:20;96934.53;;;14.35;100.00
9717;BME280;4897;43.570;27.832;2023-03-11T09:29:47;96947.53;;;14.38;100.00
9717;BME280;4897;43.570;27.832;2023-03-11T09:32:14;96934.50;;;14.48;100.00
9717;BME280;4897;43.570;27.832;2023-03-11T09:34:43;96916.84;;;14.91;100.00
9717;BME280;4897;43.570;27.832;2023-03-11T09:37:10;96913.78;;;15.26;100.00
9717;BME280;4897;43.570;27.832;2023-03-11T09:39:37;96911.44;;;15.49;100.00
9717;BME280;4897;43.570;27.832;2023-03-11T09:42:13;96907.06;;;15.03;100.00
9717;BME280;4897;43.570;27.832;2023-03-11T09:44:44;96931.41;;;15.21;100.00
9717;BME280;4897;43.570;27.832;2023-03-11T09:47:23;96925.19;;;15.28;100.00
9717;BME280;4897;43.570;27.832;2023-03-11T09:50:11;96903.66;;;15.21;100.00
9717;BME280;4897;43.570;27.832;2023-03-11T09:52:44;96935.91;;;15.41;100.00
9717;BME280;4897;43.570;27.832;2023-03-11T09:55:30;96913.97;;;15.37;100.00
9717;BME280;4897;43.570;27.832;2023-03-11T09:58:01;96898.88;;;15.74;100.00
9717;BME280;4897;43.570;27.832;2023-03-11T10:00:29;96921.00;;;16.07;100.00
9717;BME280;4897;43.570;27.832;2023-03-11T10:02:57;96914.78;;;16.31;100.00
9717;BME280;4897;43.570;27.832;2023-03-11T10:05:28;96899.69;;;16.30;100.00
9717;BME280;4897;43.570;27.832;2023-03-11T10:08:01;96871.94;;;16.23;100.00
9717;BME280;4897;43.570;27.832;2023-03-11T10:10:34;96845.84;;;17.32;100.00
9717;BME280;4897;43.570;27.832;2023-03-11T10:13:10;96889.88;;;18.57;100.00
9717;BME280;4897;43.570;27.832;2023-03-11T10:15:46;96878.88;;;18.05;100.00
9717;BME280;4897;43.570;27.832;2023-03-11T10:18:31;96891.19;;;17.90;100.00
9717;BME280;4897;43.570;27.832;2023-03-11T10:21:09;96871.75;;;18.22;100.00
9717;BME280;4897;43.570;27.832;2023-03-11T10:23:54;96892.69;;;18.27;100.00
9717;BME280;4897;43.570;27.832;2023-03-11T10:26:28;96896.28;;;18.09;100.00
9717;BME280;4897;43.570;27.832;2023-03-11T10:29:01;96898.00;;;17.92;100.00
9717;BME280;4897;43.570;27.832;2023-03-11T10:31:36;96910.28;;;16.74;100.00
9717;BME280;4897;43.570;27.832;2023-03-11T10:34:13;96916.53;;;16.50;100.00
9717;BME280;4897;43.570;27.832;2023-03-11T10:36:52;96890.94;;;16.10;100.00
9717;BME280;4897;43.570;27.832;2023-03-11T10:39:23;96890.81;;;16.23;100.00
9717;BME280;4897;43.570;27.832;2023-03-11T10:41:53;96834.84;;;16.43;100.00
9717;BME280;4897;43.570;27.832;2023-03-11T10:44:24;96864.50;;;17.04;100.00
9717;BME280;4897;43.570;27.832;2023-03-11T10:46:53;96850.22;;;17.15;100.00
9717;BME280;4897;43.570;27.832;2023-03-11T10:49:20;96867.56;;;17.85;100.00
9717;BME280;4897;43.570;27.832;2023-03-11T10:51:50;96846.69;;;18.38;100.00
9717;BME280;4897;43.570;27.832;2023-03-11T10:54:23;96856.25;;;18.53;100.00
9717;BME280;4897;43.570;27.832;2023-03-11T10:56:54;96844.16;;;19.46;100.00
9717;BME280;4897;43.570;27.832;2023-03-11T10:59:24;96858.00;;;19.61;100.00
9717;BME280;4897;43.570;27.832;2023-03-11T11:01:56;96839.69;;;19.12;100.00
9717;BME280;4897;43.570;27.832;2023-03-11T11:04:30;96832.09;;;19.82;100.00
9717;BME280;4897;43.570;27.832;2023-03-11T11:07:19;96822.41;;;19.30;100.00
9717;BME280;4897;43.570;27.832;2023-03-11T11:09:49;96816.59;;;18.58;100.00
9717;BME280;4897;43.570;27.832;2023-03-11T11:12:35;96821.53;;;18.50;100.00
9717;BME280;4897;43.570;27.832;2023-03-11T11:15:03;96821.22;;;17.70;100.00
9717;BME280;4897;43.570;27.832;2023-03-11T11:17:31;96797.38;;;17.19;100.00
9717;BME280;4897;43.570;27.832;2023-03-11T11:20:02;96821.56;;;16.96;100.00
9717;BME280;4897;43.570;27.832;2023-03-11T11:22:46;96806.41;;;17.43;100.00
9717;BME280;4897;43.570;27.832;2023-03-11T11:25:32;96739.06;;;18.29;100.00
9717;BME280;4897;43.570;27.832;2023-03-11T11:28:02;96783.94;;;19.16;100.00
9717;BME280;4897;43.570;27.832;2023-03-11T11:30:30;96779.44;;;18.93;100.00
9717;BME280;4897;43.570;27.832;2023-03-11T11:33:20;96795.75;;;18.70;100.00
9717;BME280;4897;43.570;27.832;2023-03-11T11:35:49;96782.22;;;18.70;100.00
9717;BME280;4897;43.570;27.832;2023-03-11T11:38:20;96791.78;;;18.50;100.00
9717;BME280;4897;43.570;27.832;2023-03-11T11:40:49;96731.38;;;17.45;100.00
9717;BME280;4897;43.570;27.832;2023-03-11T11:43:18;96779.41;;;17.96;100.00
9717;BME280;4897;43.570;27.832;2023-03-11T11:45:47;96788.09;;;17.86;100.00
9717;BME280;4897;43.570;27.832;2023-03-11T11:48:18;96791.41;;;18.11;100.00
9717;BME280;4897;43.570;27.832;2023-03-11T11:50:50;96790.44;;;17.94;100.00
9717;BME280;4897;43.570;27.832;2023-03-11T11:53:29;96785.34;;;17.51;100.00
9717;BME280;4897;43.570;27.832;2023-03-11T11:55:58;96775.28;;;17.40;100.00
9717;BME280;4897;43.570;27.832;2023-03-11T11:58:27;96770.38;;;17.49;100.00
9717;BME280;4897;43.570;27.832;2023-03-11T12:01:14;96772.31;;;17.72;100.00
9717;BME280;4897;43.570;27.832;2023-03-11T12:04:19;96773.16;;;17.84;100.00
9717;BME280;4897;43.570;27.832;2023-03-11T12:07:00;96783.50;;;17.75;100.00
9717;BME280;4897;43.570;27.832;2023-03-11T12:09:35;96744.56;;;17.53;100.00
9717;BME280;4897;43.570;27.832;2023-03-11T12:12:13;96797.94;;;17.69;100.00
9717;BME280;4897;43.570;27.832;2023-03-11T12:14:48;96785.72;;;17.37;100.00
9717;BME280;4897;43.570;27.832;2023-03-11T12:17:20;96793.03;;;16.89;100.00
9717;BME280;4897;43.570;27.832;2023-03-11T12:19:51;96800.56;;;17.16;100.00
9717;BME280;4897;43.570;27.832;2023-03-11T12:22:48;96802.84;;;17.31;100.00
9717;BME280;4897;43.570;27.832;2023-03-11T12:25:27;96814.59;;;17.07;100.00
9717;BME280;4897;43.570;27.832;2023-03-11T12:28:00;96794.19;;;17.11;100.00
9717;BME280;4897;43.570;27.832;2023-03-11T12:30:36;96790.78;;;17.33;100.00
9717;BME280;4897;43.570;27.832;2023-03-11T12:33:08;96808.44;;;17.47;100.00
9717;BME280;4897;43.570;27.832;2023-03-11T12:35:47;96794.75;;;17.61;100.00
9717;BME280;4897;43.570;27.832;2023-03-11T12:38:17;96810.38;;;17.40;100.00
9717;BME280;4897;43.570;27.832;2023-03-11T12:40:56;96819.25;;;17.29;100.00
9717;BME280;4897;43.570;27.832;2023-03-11T12:49:37;96814.94;;;16.81;100.00
9717;BME280;4897;43.570;27.832;2023-03-11T12:52:20;96802.31;;;16.93;100.00
9717;BME280;4897;43.570;27.832;2023-03-11T12:55:28;96789.13;;;16.85;100.00
9717;BME280;4897;43.570;27.832;2023-03-11T12:58:04;96794.06;;;16.88;100.00
9717;BME280;4897;43.570;27.832;2023-03-11T13:00:48;96812.75;;;16.71;100.00
9717;BME280;4897;43.570;27.832;2023-03-11T13:03:41;96815.22;;;16.54;100.00
9717;BME280;4897;43.570;27.832;2023-03-11T13:06:39;96823.09;;;16.31;100.00
9717;BME280;4897;43.570;27.832;2023-03-11T13:09:13;96815.25;;;16.30;100.00
9717;BME280;4897;43.570;27.832;2023-03-11T13:11:43;96827.78;;;16.42;100.00
9717;BME280;4897;43.570;27.832;2023-03-11T13:14:22;96780.84;;;16.25;100.00
9717;BME280;4897;43.570;27.832;2023-03-11T13:16:52;96814.34;;;16.60;100.00
9717;BME280;4897;43.570;27.832;2023-03-11T13:19:48;96819.91;;;16.41;100.00
9717;BME280;4897;43.570;27.832;2023-03-11T13:23:05;96823.50;;;16.35;100.00